Time,TemperatureF,DewpointF,PressureIn,WindDirection,WindDirectionDegrees,WindSpeedMPH,WindSpeedGustMPH,Humidity,HourlyPrecipIn,Conditions,Clouds,dailyrainin,SoftwareType,DateUTC
2013-07-09 00:01:00,74.9,70.8,29.94,East,90,4.7,8.5,87,0.00,,,0.00,WUHU216HW,2013-07-09 05:01:00,
2013-07-09 00:06:00,74.7,70.7,29.94,ESE,113,3.1,8.1,87,0.00,,,0.00,WUHU216HW,2013-07-09 05:06:00,
2013-07-09 00:11:00,74.5,70.5,29.94,East,90,5.4,7.2,87,0.00,,,0.00,WUHU216HW,2013-07-09 05:11:00,
2013-07-09 00:16:00,74.3,70.3,29.94,ENE,68,4.7,7.2,87,0.00,,,0.00,WUHU216HW,2013-07-09 05:16:00,
2013-07-09 00:21:00,74.3,70.3,29.95,NE,45,4.7,6.3,87,0.00,,,0.00,WUHU216HW,2013-07-09 05:21:00,
2013-07-09 00:26:00,74.2,70.1,29.95,East,90,4.7,9.6,87,0.00,,,0.00,WUHU216HW,2013-07-09 05:26:00,
2013-07-09 00:31:00,74.0,69.9,29.95,East,90,3.1,9.6,87,0.00,,,0.00,WUHU216HW,2013-07-09 05:31:00,
2013-07-09 00:36:00,73.8,70.0,29.95,East,90,5.1,8.1,88,0.00,,,0.00,WUHU216HW,2013-07-09 05:36:00,
2013-07-09 00:41:00,73.6,69.8,29.95,East,90,4.0,7.6,88,0.00,,,0.00,WUHU216HW,2013-07-09 05:41:00,
2013-07-09 00:46:00,73.4,69.7,29.95,East,90,2.9,7.6,88,0.00,,,0.00,WUHU216HW,2013-07-09 05:46:00,
2013-07-09 00:51:00,73.3,69.5,29.96,ESE,113,2.9,5.1,88,0.00,,,0.00,WUHU216HW,2013-07-09 05:51:00,
2013-07-09 00:56:00,73.3,69.5,29.95,ESE,113,3.6,4.7,88,0.00,,,0.00,WUHU216HW,2013-07-09 05:56:00,
2013-07-09 01:01:00,73.1,69.7,29.95,ENE,68,4.0,4.9,89,0.00,,,0.00,WUHU216HW,2013-07-09 06:01:00,
2013-07-09 01:06:00,72.9,69.1,29.95,ENE,68,4.9,7.2,88,0.00,,,0.00,WUHU216HW,2013-07-09 06:06:00,
2013-07-09 01:11:00,72.9,69.1,29.95,ENE,68,1.3,7.2,88,0.00,,,0.00,WUHU216HW,2013-07-09 06:11:00,
2013-07-09 01:16:00,72.7,68.9,29.94,East,90,4.0,6.3,88,0.00,,,0.00,WUHU216HW,2013-07-09 06:16:00,
2013-07-09 01:21:00,72.7,68.9,29.94,ESE,113,2.5,5.1,88,0.00,,,0.00,WUHU216HW,2013-07-09 06:21:00,
2013-07-09 01:26:00,72.5,68.8,29.94,East,90,3.6,5.8,88,0.00,,,0.00,WUHU216HW,2013-07-09 06:26:00,
2013-07-09 01:31:00,72.4,68.6,29.94,ESE,113,1.8,5.8,88,0.00,,,0.00,WUHU216HW,2013-07-09 06:31:00,
2013-07-09 01:36:00,72.4,68.6,29.94,East,90,2.5,4.5,88,0.00,,,0.00,WUHU216HW,2013-07-09 06:36:00,
2013-07-09 01:41:00,72.4,68.6,29.94,East,90,2.7,4.7,88,0.00,,,0.00,WUHU216HW,2013-07-09 06:41:00,
2013-07-09 01:46:00,72.4,68.6,29.94,SE,135,4.3,5.6,88,0.00,,,0.00,WUHU216HW,2013-07-09 06:46:00,
2013-07-09 01:51:00,72.5,68.5,29.94,SE,135,4.7,5.6,87,0.00,,,0.00,WUHU216HW,2013-07-09 06:51:00,
2013-07-09 01:56:00,72.5,68.5,29.94,ESE,113,3.4,5.6,87,0.00,,,0.00,WUHU216HW,2013-07-09 06:56:00,
2013-07-09 02:01:00,72.5,68.5,29.94,ESE,113,4.7,5.6,87,0.00,,,0.00,WUHU216HW,2013-07-09 07:01:00,
2013-07-09 02:06:00,72.4,68.3,29.94,ESE,113,3.4,4.9,87,0.00,,,0.00,WUHU216HW,2013-07-09 07:06:00,
2013-07-09 02:11:00,72.4,68.3,29.94,East,90,3.6,4.9,87,0.00,,,0.00,WUHU216HW,2013-07-09 07:11:00,
2013-07-09 02:16:00,72.4,68.3,29.94,ESE,113,4.0,4.0,87,0.00,,,0.00,WUHU216HW,2013-07-09 07:16:00,
2013-07-09 02:21:00,72.2,68.4,29.94,ESE,113,2.7,4.0,88,0.00,,,0.00,WUHU216HW,2013-07-09 07:21:00,
2013-07-09 02:26:00,72.0,68.0,29.94,ESE,113,3.1,4.3,87,0.00,,,0.00,WUHU216HW,2013-07-09 07:26:00,
2013-07-09 02:31:00,71.8,68.0,29.94,ESE,113,2.2,4.7,88,0.00,,,0.00,WUHU216HW,2013-07-09 07:31:00,
2013-07-09 02:36:00,71.6,67.9,29.94,ENE,68,2.5,4.7,88,0.00,,,0.00,WUHU216HW,2013-07-09 07:36:00,
2013-07-09 02:41:00,71.5,67.7,29.94,ESE,113,3.1,3.6,88,0.00,,,0.00,WUHU216HW,2013-07-09 07:41:00,
2013-07-09 02:46:00,71.3,67.5,29.94,East,90,1.8,3.6,88,0.00,,,0.00,WUHU216HW,2013-07-09 07:46:00,
2013-07-09 02:52:00,71.3,67.5,29.94,SE,135,3.4,3.6,88,0.00,,,0.00,WUHU216HW,2013-07-09 07:52:00,
2013-07-09 02:57:00,71.1,67.3,29.94,ENE,68,2.5,3.6,88,0.00,,,0.00,WUHU216HW,2013-07-09 07:57:00,
2013-07-09 03:02:00,71.1,67.3,29.94,SE,135,1.8,3.6,88,0.00,,,0.00,WUHU216HW,2013-07-09 08:02:00,
2013-07-09 03:07:00,70.9,67.1,29.94,East,90,2.5,3.8,88,0.00,,,0.00,WUHU216HW,2013-07-09 08:07:00,
2013-07-09 03:12:00,70.9,67.1,29.94,East,90,1.8,3.8,88,0.00,,,0.00,WUHU216HW,2013-07-09 08:12:00,
2013-07-09 03:17:00,70.9,67.1,29.94,SE,135,3.4,4.0,88,0.00,,,0.00,WUHU216HW,2013-07-09 08:17:00,
2013-07-09 03:22:00,70.7,67.0,29.94,SE,135,3.6,4.0,88,0.00,,,0.00,WUHU216HW,2013-07-09 08:22:00,
2013-07-09 03:27:00,70.7,67.0,29.94,SE,135,2.9,4.0,88,0.00,,,0.00,WUHU216HW,2013-07-09 08:27:00,
2013-07-09 03:32:00,70.7,67.0,29.94,SE,135,2.5,4.0,88,0.00,,,0.00,WUHU216HW,2013-07-09 08:32:00,
2013-07-09 03:37:00,70.7,67.0,29.93,ESE,113,3.4,4.0,88,0.00,,,0.00,WUHU216HW,2013-07-09 08:37:00,
2013-07-09 03:42:00,70.6,67.1,29.93,ESE,113,2.0,3.8,89,0.00,,,0.00,WUHU216HW,2013-07-09 08:42:00,
2013-07-09 03:47:00,70.6,67.1,29.93,ESE,113,2.5,3.8,89,0.00,,,0.00,WUHU216HW,2013-07-09 08:47:00,
2013-07-09 03:52:00,70.4,67.0,29.93,ESE,113,1.1,2.5,89,0.00,,,0.00,WUHU216HW,2013-07-09 08:52:00,
2013-07-09 03:57:00,70.2,66.4,29.93,SE,135,2.2,3.1,88,0.00,,,0.00,WUHU216HW,2013-07-09 08:57:00,
2013-07-09 04:02:00,70.2,66.4,29.93,SE,135,2.5,3.1,88,0.00,,,0.00,WUHU216HW,2013-07-09 09:02:00,
2013-07-09 04:07:00,70.0,66.2,29.93,SE,135,1.8,2.9,88,0.00,,,0.00,WUHU216HW,2013-07-09 09:07:00,
2013-07-09 04:12:00,70.0,66.6,29.93,SE,135,2.2,3.1,89,0.00,,,0.00,WUHU216HW,2013-07-09 09:12:00,
2013-07-09 04:17:00,70.0,66.6,29.93,SE,135,2.5,3.4,89,0.00,,,0.00,WUHU216HW,2013-07-09 09:17:00,
2013-07-09 04:22:00,69.8,66.4,29.92,SE,135,4.0,4.0,89,0.00,,,0.00,WUHU216HW,2013-07-09 09:22:00,
2013-07-09 04:27:00,69.8,66.8,29.92,SE,135,3.1,4.3,90,0.00,,,0.00,WUHU216HW,2013-07-09 09:27:00,
2013-07-09 04:32:00,69.8,66.8,29.92,SE,135,2.9,4.3,90,0.00,,,0.00,WUHU216HW,2013-07-09 09:32:00,
2013-07-09 04:37:00,69.8,66.8,29.92,SE,135,3.4,5.4,90,0.00,,,0.00,WUHU216HW,2013-07-09 09:37:00,
2013-07-09 04:42:00,69.7,66.6,29.92,SSE,158,2.0,5.4,90,0.00,,,0.00,WUHU216HW,2013-07-09 09:42:00,
2013-07-09 04:47:00,69.5,66.4,29.92,SE,135,3.4,3.6,90,0.00,,,0.00,WUHU216HW,2013-07-09 09:47:00,
2013-07-09 04:52:00,69.5,66.4,29.92,SE,135,3.4,4.5,90,0.00,,,0.00,WUHU216HW,2013-07-09 09:52:00,
2013-07-09 04:57:00,69.5,66.7,29.92,SSE,158,3.1,4.5,91,0.00,,,0.00,WUHU216HW,2013-07-09 09:57:00,
2013-07-09 05:02:00,69.5,66.7,29.92,SE,135,3.6,4.5,91,0.00,,,0.00,WUHU216HW,2013-07-09 10:02:00,
2013-07-09 05:07:00,69.5,66.7,29.91,SE,135,2.5,4.5,91,0.00,,,0.00,WUHU216HW,2013-07-09 10:07:00,
2013-07-09 05:12:00,69.3,66.5,29.91,SE,135,2.9,4.0,91,0.00,,,0.00,WUHU216HW,2013-07-09 10:12:00,
2013-07-09 05:17:00,69.3,66.5,29.91,SE,135,2.5,3.4,91,0.00,,,0.00,WUHU216HW,2013-07-09 10:17:00,
2013-07-09 05:22:00,69.1,66.3,29.91,SE,135,2.0,3.4,91,0.00,,,0.00,WUHU216HW,2013-07-09 10:22:00,
2013-07-09 05:27:00,69.1,66.3,29.92,ESE,113,2.9,3.1,91,0.00,,,0.00,WUHU216HW,2013-07-09 10:27:00,
2013-07-09 05:32:00,69.1,66.3,29.91,SE,135,1.8,3.4,91,0.00,,,0.00,WUHU216HW,2013-07-09 10:32:00,
2013-07-09 05:37:00,69.1,66.3,29.92,SE,135,2.5,3.4,91,0.00,,,0.00,WUHU216HW,2013-07-09 10:37:00,
2013-07-09 05:42:00,69.1,66.3,29.91,SE,135,3.1,4.7,91,0.00,,,0.00,WUHU216HW,2013-07-09 10:42:00,
2013-07-09 05:47:00,69.3,66.5,29.91,ESE,113,2.2,4.7,91,0.00,,,0.00,WUHU216HW,2013-07-09 10:47:00,
2013-07-09 05:52:00,69.3,66.5,29.91,ESE,113,4.0,4.7,91,0.00,,,0.00,WUHU216HW,2013-07-09 10:52:00,
2013-07-09 05:57:00,69.5,66.7,29.91,SE,135,2.5,4.7,91,0.00,,,0.00,WUHU216HW,2013-07-09 10:57:00,
2013-07-09 06:02:00,69.7,66.9,29.91,SE,135,3.4,4.5,91,0.00,,,0.00,WUHU216HW,2013-07-09 11:02:00,
2013-07-09 06:07:00,70.2,67.8,29.91,SE,135,4.3,4.3,92,0.00,,,0.00,WUHU216HW,2013-07-09 11:07:00,
2013-07-09 06:12:00,70.6,67.8,29.91,SSE,158,3.1,4.5,91,0.00,,,0.00,WUHU216HW,2013-07-09 11:12:00,
2013-07-09 06:17:00,70.7,68.0,29.91,SE,135,3.4,4.7,91,0.00,,,0.00,WUHU216HW,2013-07-09 11:17:00,
2013-07-09 06:22:00,70.7,68.0,29.91,SE,135,4.5,5.8,91,0.00,,,0.00,WUHU216HW,2013-07-09 11:22:00,
2013-07-09 06:27:00,70.6,67.8,29.92,SSE,158,3.4,5.8,91,0.00,,,0.00,WUHU216HW,2013-07-09 11:27:00,
2013-07-09 06:32:00,70.7,68.0,29.91,SSE,158,4.0,6.5,91,0.00,,,0.00,WUHU216HW,2013-07-09 11:32:00,
2013-07-09 06:37:00,70.9,68.1,29.91,SE,135,2.5,6.5,91,0.00,,,0.00,WUHU216HW,2013-07-09 11:37:00,
2013-07-09 06:42:00,70.9,68.1,29.92,SE,135,3.4,5.6,91,0.00,,,0.00,WUHU216HW,2013-07-09 11:42:00,
2013-07-09 06:47:00,71.1,68.3,29.92,SE,135,4.7,5.4,91,0.00,,,0.00,WUHU216HW,2013-07-09 11:47:00,
2013-07-09 06:52:00,71.1,68.3,29.92,SSE,158,3.4,5.4,91,0.00,,,0.00,WUHU216HW,2013-07-09 11:52:00,
2013-07-09 06:57:00,71.3,68.5,29.91,SE,135,3.8,5.4,91,0.00,,,0.00,WUHU216HW,2013-07-09 11:57:00,
2013-07-09 07:02:00,71.3,68.5,29.91,SE,135,5.1,6.3,91,0.00,,,0.00,WUHU216HW,2013-07-09 12:02:00,
2013-07-09 07:07:00,71.5,68.7,29.91,SE,135,3.8,6.3,91,0.00,,,0.00,WUHU216HW,2013-07-09 12:07:00,
2013-07-09 07:12:00,71.6,68.9,29.91,SE,135,4.0,5.4,91,0.00,,,0.00,WUHU216HW,2013-07-09 12:12:00,
2013-07-09 07:17:00,71.6,68.9,29.91,ESE,113,3.6,5.4,91,0.00,,,0.00,WUHU216HW,2013-07-09 12:17:00,
2013-07-09 07:22:00,72.0,69.2,29.91,ESE,113,4.3,5.6,91,0.00,,,0.00,WUHU216HW,2013-07-09 12:22:00,
2013-07-09 07:27:00,72.0,69.2,29.91,SSE,158,2.9,5.6,91,0.00,,,0.00,WUHU216HW,2013-07-09 12:27:00,
2013-07-09 07:32:00,72.4,69.6,29.91,SE,135,3.4,4.7,91,0.00,,,0.00,WUHU216HW,2013-07-09 12:32:00,
2013-07-09 07:37:00,72.5,69.8,29.91,SE,135,2.9,5.4,91,0.00,,,0.00,WUHU216HW,2013-07-09 12:37:00,
2013-07-09 07:42:00,73.1,70.3,29.91,SW,225,1.1,5.4,91,0.00,,,0.00,WUHU216HW,2013-07-09 12:42:00,
2013-07-09 07:47:00,73.3,70.8,29.91,South,180,3.6,5.4,92,0.00,,,0.00,WUHU216HW,2013-07-09 12:47:00,
2013-07-09 07:52:00,73.6,70.8,29.91,WSW,248,1.6,4.9,91,0.00,,,0.00,WUHU216HW,2013-07-09 12:52:00,
2013-07-09 07:57:00,74.0,70.9,29.91,ESE,113,4.5,6.0,90,0.00,,,0.00,WUHU216HW,2013-07-09 12:57:00,
2013-07-09 08:02:00,74.2,71.1,29.91,SSE,158,4.0,6.0,90,0.00,,,0.00,WUHU216HW,2013-07-09 13:02:00,
2013-07-09 08:07:00,74.5,71.1,29.90,SSE,158,5.1,6.5,89,0.00,,,0.00,WUHU216HW,2013-07-09 13:07:00,
2013-07-09 08:12:00,74.9,71.1,29.90,ESE,113,7.8,7.8,88,0.00,,,0.00,WUHU216HW,2013-07-09 13:12:00,
2013-07-09 08:17:00,75.1,71.3,29.90,SSE,158,5.4,7.8,88,0.00,,,0.00,WUHU216HW,2013-07-09 13:17:00,
2013-07-09 08:22:00,75.6,71.5,29.90,SE,135,8.5,8.5,87,0.00,,,0.00,WUHU216HW,2013-07-09 13:22:00,
2013-07-09 08:27:00,76.1,71.6,29.89,ESE,113,6.0,8.5,86,0.00,,,0.00,WUHU216HW,2013-07-09 13:27:00,
2013-07-09 08:32:00,76.9,72.0,29.89,ESE,113,4.5,8.5,85,0.00,,,0.00,WUHU216HW,2013-07-09 13:32:00,
2013-07-09 08:37:00,77.6,72.4,29.90,ESE,113,6.3,7.8,84,0.00,,,0.00,WUHU216HW,2013-07-09 13:37:00,
2013-07-09 08:42:00,78.5,72.5,29.89,SE,135,6.3,7.6,82,0.00,,,0.00,WUHU216HW,2013-07-09 13:42:00,
2013-07-09 08:47:00,79.4,73.5,29.90,SSE,158,2.2,7.6,82,0.00,,,0.00,WUHU216HW,2013-07-09 13:47:00,
2013-07-09 08:52:00,80.1,73.4,29.90,ESE,113,4.3,6.9,80,0.00,,,0.00,WUHU216HW,2013-07-09 13:52:00,
2013-07-09 08:57:00,80.1,73.4,29.89,SE,135,5.8,6.9,80,0.00,,,0.00,WUHU216HW,2013-07-09 13:57:00,
2013-07-09 09:02:00,79.9,73.3,29.90,ESE,113,3.4,6.3,80,0.00,,,0.00,WUHU216HW,2013-07-09 14:02:00,
2013-07-09 09:07:00,79.7,73.5,29.90,SE,135,3.4,6.3,81,0.00,,,0.00,WUHU216HW,2013-07-09 14:07:00,
2013-07-09 09:12:00,79.6,73.3,29.90,SSW,203,5.1,6.0,81,0.00,,,0.00,WUHU216HW,2013-07-09 14:12:00,
2013-07-09 09:17:00,79.4,73.1,29.90,SSE,158,3.4,6.5,81,0.00,,,0.00,WUHU216HW,2013-07-09 14:17:00,
2013-07-09 09:22:00,79.6,73.6,29.90,SSW,203,4.9,6.5,82,0.00,,,0.00,WUHU216HW,2013-07-09 14:22:00,
2013-07-09 09:27:00,79.7,73.5,29.90,SE,135,6.7,7.6,81,0.00,,,0.00,WUHU216HW,2013-07-09 14:27:00,
2013-07-09 09:32:00,79.7,73.8,29.91,ESE,113,1.8,7.6,82,0.00,,,0.00,WUHU216HW,2013-07-09 14:32:00,
2013-07-09 09:37:00,80.1,73.8,29.91,SE,135,4.5,6.9,81,0.00,,,0.00,WUHU216HW,2013-07-09 14:37:00,
2013-07-09 09:42:00,80.5,74.2,29.91,South,180,2.2,6.9,81,0.00,,,0.00,WUHU216HW,2013-07-09 14:42:00,
2013-07-09 09:47:00,80.5,74.2,29.90,SW,225,4.7,5.1,81,0.00,,,0.00,WUHU216HW,2013-07-09 14:47:00,
2013-07-09 09:52:00,80.1,73.8,29.90,SSW,203,3.8,5.8,81,0.00,,,0.00,WUHU216HW,2013-07-09 14:52:00,
2013-07-09 09:57:00,79.6,73.3,29.90,SSW,203,3.8,5.8,81,0.00,,,0.00,WUHU216HW,2013-07-09 14:57:00,
2013-07-09 10:02:00,79.4,73.1,29.89,SE,135,6.5,6.9,81,0.00,,,0.00,WUHU216HW,2013-07-09 15:02:00,
2013-07-09 10:07:00,79.2,73.3,29.89,SE,135,6.7,8.5,82,0.00,,,0.00,WUHU216HW,2013-07-09 15:07:00,
2013-07-09 10:12:00,79.2,73.6,29.89,South,180,6.3,8.5,83,0.00,,,0.00,WUHU216HW,2013-07-09 15:12:00,
2013-07-09 10:17:00,79.2,73.6,29.88,ESE,113,4.0,8.3,83,0.00,,,0.00,WUHU216HW,2013-07-09 15:17:00,
2013-07-09 10:22:00,79.2,73.3,29.89,SSW,203,3.4,7.4,82,0.00,,,0.00,WUHU216HW,2013-07-09 15:22:00,
2013-07-09 10:27:00,79.0,73.1,29.90,South,180,5.6,6.0,82,0.00,,,0.00,WUHU216HW,2013-07-09 15:27:00,
2013-07-09 10:32:00,78.5,72.9,29.89,SW,225,2.5,6.0,83,0.00,,,0.00,WUHU216HW,2013-07-09 15:32:00,
2013-07-09 10:37:00,78.3,72.7,29.89,South,180,2.5,5.6,83,0.00,,,0.00,WUHU216HW,2013-07-09 15:37:00,
2013-07-09 10:42:00,78.1,72.9,29.89,South,180,1.6,4.9,84,0.00,,,0.00,WUHU216HW,2013-07-09 15:42:00,
2013-07-09 10:47:00,77.9,73.1,29.89,SE,135,2.5,4.9,85,0.01,,,0.02,WUHU216HW,2013-07-09 15:47:00,
2013-07-09 10:52:00,77.4,72.5,29.89,SW,225,1.1,4.5,85,0.02,,,0.02,WUHU216HW,2013-07-09 15:52:00,
2013-07-09 10:57:00,76.7,72.5,29.91,WSW,248,21.5,21.5,87,0.07,,,0.07,WUHU216HW,2013-07-09 15:57:00,
2013-07-09 11:02:00,73.3,69.2,29.94,WSW,248,11.6,23.3,87,0.13,,,0.14,WUHU216HW,2013-07-09 16:02:00,
2013-07-09 11:07:00,70.9,67.1,29.93,WNW,293,13.4,23.3,88,0.22,,,0.22,WUHU216HW,2013-07-09 16:07:00,
2013-07-09 11:12:00,69.5,66.7,29.93,NNW,338,15.0,17.4,91,0.31,,,0.32,WUHU216HW,2013-07-09 16:12:00,
2013-07-09 11:17:00,69.3,66.5,29.92,North,0,6.3,22.8,91,0.42,,,0.42,WUHU216HW,2013-07-09 16:17:00,
2013-07-09 11:22:00,69.5,66.7,29.91,NW,315,1.3,22.8,91,0.52,,,0.52,WUHU216HW,2013-07-09 16:22:00,
2013-07-09 11:27:00,69.7,66.9,29.91,WSW,248,6.3,8.7,91,0.62,,,0.63,WUHU216HW,2013-07-09 16:27:00,
2013-07-09 11:32:00,70.2,67.4,29.91,WNW,293,6.3,11.4,91,0.71,,,0.72,WUHU216HW,2013-07-09 16:32:00,
2013-07-09 11:37:00,70.6,67.5,29.91,NW,315,6.3,11.4,90,0.79,,,0.79,WUHU216HW,2013-07-09 16:37:00,
2013-07-09 11:42:00,71.3,67.9,29.91,West,270,3.1,8.7,89,0.87,,,0.88,WUHU216HW,2013-07-09 16:42:00,
2013-07-09 11:47:00,72.4,68.6,29.90,NNW,338,5.1,8.7,88,0.93,,,0.94,WUHU216HW,2013-07-09 16:47:00,
2013-07-09 11:52:00,73.1,69.0,29.89,WNW,293,2.2,6.3,87,0.94,,,1.00,WUHU216HW,2013-07-09 16:52:00,
2013-07-09 11:57:00,73.4,68.7,29.88,West,270,3.8,5.1,85,0.91,,,1.01,WUHU216HW,2013-07-09 16:57:00,
2013-07-09 12:02:00,74.0,69.6,29.89,WSW,248,4.5,4.7,86,0.84,,,1.01,WUHU216HW,2013-07-09 17:02:00,
2013-07-09 12:07:00,74.3,69.6,29.89,WSW,248,5.8,6.0,85,0.77,,,1.01,WUHU216HW,2013-07-09 17:07:00,
2013-07-09 12:12:00,74.3,69.9,29.89,SW,225,4.7,6.0,86,0.62,,,1.01,WUHU216HW,2013-07-09 17:12:00,
2013-07-09 12:17:00,74.5,70.1,29.88,WSW,248,3.8,5.8,86,0.54,,,1.01,WUHU216HW,2013-07-09 17:17:00,
2013-07-09 12:22:00,74.5,70.1,29.88,WSW,248,2.2,5.4,86,0.46,,,1.01,WUHU216HW,2013-07-09 17:22:00,
2013-07-09 12:27:00,74.5,70.1,29.88,WSW,248,0.9,4.0,86,0.37,,,1.01,WUHU216HW,2013-07-09 17:27:00,
2013-07-09 12:32:00,75.1,70.7,29.87,SW,225,0.9,2.7,86,0.23,,,1.01,WUHU216HW,2013-07-09 17:32:00,
2013-07-09 12:37:00,75.2,70.8,29.86,SE,135,1.8,2.0,86,0.18,,,1.02,WUHU216HW,2013-07-09 17:37:00,
2013-07-09 12:42:00,75.2,70.8,29.86,ESE,113,4.0,4.7,86,0.12,,,1.02,WUHU216HW,2013-07-09 17:42:00,
2013-07-09 12:47:00,75.1,70.7,29.85,SE,135,4.0,4.7,86,0.07,,,1.02,WUHU216HW,2013-07-09 17:47:00,
2013-07-09 12:52:00,75.1,70.7,29.86,SE,135,3.6,4.5,86,0.01,,,1.02,WUHU216HW,2013-07-09 17:52:00,
2013-07-09 12:57:00,75.1,71.0,29.85,SE,135,4.3,6.5,87,0.01,,,1.02,WUHU216HW,2013-07-09 17:57:00,
2013-07-09 13:02:00,75.2,71.2,29.86,SE,135,4.9,6.5,87,0.01,,,1.02,WUHU216HW,2013-07-09 18:02:00,
2013-07-09 13:07:00,75.2,71.2,29.85,ESE,113,7.8,7.8,87,0.01,,,1.02,WUHU216HW,2013-07-09 18:07:00,
2013-07-09 13:12:00,75.2,70.8,29.85,SE,135,7.2,9.4,86,0.01,,,1.02,WUHU216HW,2013-07-09 18:12:00,
2013-07-09 13:17:00,75.1,70.7,29.84,ESE,113,5.4,9.4,86,0.01,,,1.02,WUHU216HW,2013-07-09 18:17:00,
2013-07-09 13:22:00,75.1,71.0,29.84,SE,135,6.7,7.6,87,0.01,,,1.02,WUHU216HW,2013-07-09 18:22:00,
2013-07-09 13:27:00,75.1,71.0,29.84,SE,135,4.3,8.7,87,0.01,,,1.02,WUHU216HW,2013-07-09 18:27:00,
2013-07-09 13:32:00,75.1,71.0,29.84,ESE,113,6.3,8.7,87,0.00,,,1.02,WUHU216HW,2013-07-09 18:32:00,
2013-07-09 13:37:00,74.9,70.8,29.85,SE,135,4.9,8.3,87,0.00,,,1.02,WUHU216HW,2013-07-09 18:37:00,
2013-07-09 13:42:00,74.9,70.8,29.85,ESE,113,3.4,8.3,87,0.00,,,1.02,WUHU216HW,2013-07-09 18:42:00,
2013-07-09 13:47:00,74.9,70.8,29.85,SSW,203,5.8,6.9,87,0.00,,,1.02,WUHU216HW,2013-07-09 18:47:00,
2013-07-09 13:52:00,75.1,71.0,29.85,South,180,4.0,6.7,87,0.00,,,1.02,WUHU216HW,2013-07-09 18:52:00,
2013-07-09 13:57:00,75.1,71.0,29.85,SSW,203,2.5,6.7,87,0.00,,,1.02,WUHU216HW,2013-07-09 18:57:00,
2013-07-09 14:02:00,75.2,71.2,29.85,South,180,2.5,4.7,87,0.00,,,1.02,WUHU216HW,2013-07-09 19:02:00,
2013-07-09 14:07:00,75.2,71.2,29.85,SSE,158,4.3,4.7,87,0.00,,,1.02,WUHU216HW,2013-07-09 19:07:00,
2013-07-09 14:12:00,76.0,71.8,29.85,SE,135,4.9,7.6,87,0.00,,,1.02,WUHU216HW,2013-07-09 19:12:00,
2013-07-09 14:17:00,76.7,71.8,29.84,SE,135,7.4,7.6,85,0.00,,,1.02,WUHU216HW,2013-07-09 19:17:00,
2013-07-09 14:22:00,77.0,72.2,29.84,South,180,4.7,8.3,85,0.00,,,1.02,WUHU216HW,2013-07-09 19:22:00,
2013-07-09 14:27:00,78.3,73.4,29.84,ESE,113,4.0,8.3,85,0.00,,,1.02,WUHU216HW,2013-07-09 19:27:00,
2013-07-09 14:32:00,79.6,74.4,29.83,SE,135,3.1,7.8,84,0.00,,,1.02,WUHU216HW,2013-07-09 19:32:00,
2013-07-09 14:37:00,80.5,73.5,29.83,SSE,158,4.9,8.3,79,0.00,,,1.02,WUHU216HW,2013-07-09 19:37:00,
2013-07-09 14:42:00,80.8,73.8,29.83,SSW,203,4.9,8.3,79,0.00,,,1.02,WUHU216HW,2013-07-09 19:42:00,
2013-07-09 14:46:00,80.8,73.0,29.83,SSW,203,6.7,7.2,77,0.00,,,1.02,WUHU216HW,2013-07-09 19:46:00,
2013-07-09 14:51:00,81.2,73.4,29.83,SSW,203,4.5,9.6,77,0.00,,,1.02,WUHU216HW,2013-07-09 19:51:00,
2013-07-09 14:56:00,81.5,72.8,29.83,SSW,203,5.4,11.0,75,0.00,,,1.02,WUHU216HW,2013-07-09 19:56:00,
2013-07-09 15:01:00,81.5,72.8,29.83,SSW,203,9.4,11.0,75,0.00,,,1.02,WUHU216HW,2013-07-09 20:01:00,
2013-07-09 15:06:00,82.1,73.8,29.83,SW,225,6.9,9.4,76,0.00,,,1.02,WUHU216HW,2013-07-09 20:06:00,
2013-07-09 15:11:00,82.8,73.6,29.83,SSW,203,8.5,12.8,74,0.00,,,1.02,WUHU216HW,2013-07-09 20:11:00,
2013-07-09 15:16:00,82.8,73.3,29.83,SSW,203,7.8,12.8,73,0.00,,,1.02,WUHU216HW,2013-07-09 20:16:00,
2013-07-09 15:21:00,83.0,73.0,29.82,WSW,248,11.6,12.8,72,0.00,,,1.02,WUHU216HW,2013-07-09 20:21:00,
2013-07-09 15:26:00,82.8,72.8,29.82,SW,225,9.6,13.4,72,0.00,,,1.02,WUHU216HW,2013-07-09 20:26:00,
2013-07-09 15:31:00,83.0,73.0,29.82,SSW,203,9.2,13.4,72,0.00,,,1.02,WUHU216HW,2013-07-09 20:31:00,
2013-07-09 15:36:00,83.2,73.6,29.81,SSW,203,6.3,10.5,73,0.00,,,1.02,WUHU216HW,2013-07-09 20:36:00,
2013-07-09 15:41:00,83.2,73.6,29.81,WSW,248,8.1,11.6,73,0.00,,,1.02,WUHU216HW,2013-07-09 20:41:00,
2013-07-09 15:46:00,84.1,74.1,29.81,SSW,203,6.3,11.6,72,0.00,,,1.02,WUHU216HW,2013-07-09 20:46:00,
2013-07-09 15:51:00,84.4,74.0,29.81,South,180,10.5,11.9,71,0.00,,,1.02,WUHU216HW,2013-07-09 20:51:00,
2013-07-09 15:56:00,84.6,73.4,29.81,SSW,203,7.4,11.9,69,0.00,,,1.02,WUHU216HW,2013-07-09 20:56:00,
2013-07-09 16:01:00,85.0,74.5,29.81,WSW,248,8.5,11.0,71,0.00,,,1.02,WUHU216HW,2013-07-09 21:01:00,
2013-07-09 16:06:00,85.1,73.9,29.81,SSW,203,13.4,13.4,69,0.00,,,1.02,WUHU216HW,2013-07-09 21:06:00,
2013-07-09 16:11:00,85.0,73.7,29.81,SW,225,11.4,15.0,69,0.00,,,1.02,WUHU216HW,2013-07-09 21:11:00,
2013-07-09 16:16:00,85.1,74.3,29.81,WSW,248,13.2,15.0,70,0.00,,,1.02,WUHU216HW,2013-07-09 21:16:00,
2013-07-09 16:21:00,85.5,73.4,29.81,WSW,248,13.0,15.7,67,0.00,,,1.02,WUHU216HW,2013-07-09 21:21:00,
2013-07-09 16:26:00,85.5,73.4,29.81,WSW,248,15.2,15.7,67,0.00,,,1.02,WUHU216HW,2013-07-09 21:26:00,
2013-07-09 16:31:00,85.5,73.4,29.81,SW,225,10.5,17.2,67,0.00,,,1.02,WUHU216HW,2013-07-09 21:31:00,
2013-07-09 16:36:00,85.7,73.5,29.81,SW,225,14.1,17.9,67,0.00,,,1.02,WUHU216HW,2013-07-09 21:36:00,
2013-07-09 16:41:00,86.0,73.8,29.81,WSW,248,13.6,18.6,67,0.00,,,1.02,WUHU216HW,2013-07-09 21:41:00,
2013-07-09 16:46:00,86.0,73.4,29.81,SW,225,14.5,18.6,66,0.00,,,1.02,WUHU216HW,2013-07-09 21:46:00,
2013-07-09 16:51:00,86.2,73.5,29.80,WSW,248,15.0,18.6,66,0.00,,,1.02,WUHU216HW,2013-07-09 21:51:00,
2013-07-09 16:56:00,86.4,74.2,29.81,WSW,248,16.8,16.8,67,0.00,,,1.02,WUHU216HW,2013-07-09 21:56:00,
2013-07-09 17:01:00,86.4,74.2,29.81,WSW,248,12.8,17.7,67,0.00,,,1.02,WUHU216HW,2013-07-09 22:01:00,
2013-07-09 17:06:00,86.2,73.5,29.80,WSW,248,15.0,17.7,66,0.00,,,1.02,WUHU216HW,2013-07-09 22:06:00,
2013-07-09 17:11:00,86.2,73.5,29.80,WSW,248,8.5,17.0,66,0.00,,,1.02,WUHU216HW,2013-07-09 22:11:00,
2013-07-09 17:16:00,86.4,73.7,29.80,SW,225,15.4,17.4,66,0.00,,,1.02,WUHU216HW,2013-07-09 22:16:00,
2013-07-09 17:21:00,86.4,73.7,29.80,WSW,248,11.6,17.4,66,0.00,,,1.02,WUHU216HW,2013-07-09 22:21:00,
2013-07-09 17:26:00,86.4,74.2,29.80,SSW,203,11.4,17.4,67,0.00,,,1.02,WUHU216HW,2013-07-09 22:26:00,
2013-07-09 17:31:00,86.2,74.0,29.80,WSW,248,14.3,17.4,67,0.00,,,1.02,WUHU216HW,2013-07-09 22:31:00,
2013-07-09 17:36:00,86.0,73.8,29.79,WSW,248,10.3,17.2,67,0.00,,,1.02,WUHU216HW,2013-07-09 22:36:00,
2013-07-09 17:41:00,85.9,74.2,29.79,SSW,203,7.8,15.0,68,0.00,,,1.02,WUHU216HW,2013-07-09 22:41:00,
2013-07-09 17:46:00,86.0,74.4,29.79,SW,225,6.0,15.0,68,0.00,,,1.02,WUHU216HW,2013-07-09 22:46:00,
2013-07-09 17:51:00,86.0,73.8,29.79,SW,225,10.1,14.3,67,0.00,,,1.02,WUHU216HW,2013-07-09 22:51:00,
2013-07-09 17:56:00,86.0,73.8,29.79,WSW,248,12.3,14.8,67,0.00,,,1.02,WUHU216HW,2013-07-09 22:56:00,
2013-07-09 18:01:00,86.0,73.8,29.80,SW,225,9.2,17.0,67,0.00,,,1.02,WUHU216HW,2013-07-09 23:01:00,
2013-07-09 18:06:00,86.0,73.8,29.79,WSW,248,11.6,18.1,67,0.00,,,1.02,WUHU216HW,2013-07-09 23:06:00,
2013-07-09 18:11:00,85.5,73.4,29.79,WSW,248,10.3,18.1,67,0.00,,,1.02,WUHU216HW,2013-07-09 23:11:00,
2013-07-09 18:16:00,85.3,73.6,29.79,SW,225,11.4,15.4,68,0.00,,,1.02,WUHU216HW,2013-07-09 23:16:00,
2013-07-09 18:21:00,85.3,74.1,29.79,WSW,248,9.4,15.4,69,0.00,,,1.02,WUHU216HW,2013-07-09 23:21:00,
2013-07-09 18:26:00,85.1,73.5,29.79,SW,225,12.8,13.6,68,0.00,,,1.02,WUHU216HW,2013-07-09 23:26:00,
2013-07-09 18:31:00,85.1,73.5,29.79,SW,225,11.4,15.0,68,0.00,,,1.02,WUHU216HW,2013-07-09 23:31:00,
2013-07-09 18:36:00,85.7,74.0,29.79,SSW,203,10.5,18.3,68,0.00,,,1.02,WUHU216HW,2013-07-09 23:36:00,
2013-07-09 18:41:00,86.0,73.8,29.79,SW,225,15.0,18.3,67,0.00,,,1.02,WUHU216HW,2013-07-09 23:41:00,
2013-07-09 18:46:00,85.7,73.5,29.79,WSW,248,13.4,16.3,67,0.00,,,1.02,WUHU216HW,2013-07-09 23:46:00,
2013-07-09 18:51:00,86.2,74.0,29.78,SW,225,10.3,16.3,67,0.00,,,1.02,WUHU216HW,2013-07-09 23:51:00,
2013-07-09 18:56:00,86.6,73.9,29.79,WSW,248,12.1,15.7,66,0.00,,,1.02,WUHU216HW,2013-07-09 23:56:00,
2013-07-09 19:01:00,87.3,74.5,29.78,SW,225,9.2,14.5,66,0.00,,,1.02,WUHU216HW,2013-07-10 00:01:00,
2013-07-09 19:06:00,87.8,74.2,29.78,SW,225,9.6,13.2,64,0.00,,,1.02,WUHU216HW,2013-07-10 00:06:00,
2013-07-09 19:11:00,88.2,74.5,29.78,WSW,248,9.8,12.3,64,0.00,,,1.02,WUHU216HW,2013-07-10 00:11:00,
2013-07-09 19:16:00,88.2,74.5,29.78,WSW,248,9.6,10.7,64,0.00,,,1.02,WUHU216HW,2013-07-10 00:16:00,
2013-07-09 19:21:00,87.1,73.9,29.78,WSW,248,10.5,12.3,65,0.00,,,1.02,WUHU216HW,2013-07-10 00:21:00,
2013-07-09 19:26:00,86.8,74.1,29.78,WSW,248,7.6,12.3,66,0.00,,,1.02,WUHU216HW,2013-07-10 00:26:00,
2013-07-09 19:31:00,86.9,74.3,29.78,SW,225,12.5,14.1,66,0.00,,,1.02,WUHU216HW,2013-07-10 00:31:00,
2013-07-09 19:36:00,87.1,74.3,29.78,WSW,248,5.6,14.1,66,0.00,,,1.02,WUHU216HW,2013-07-10 00:36:00,
2013-07-09 19:41:00,86.9,74.3,29.78,SW,225,8.3,14.8,66,0.00,,,1.02,WUHU216HW,2013-07-10 00:41:00,
2013-07-09 19:46:00,86.6,74.4,29.78,SW,225,8.1,14.8,67,0.00,,,1.02,WUHU216HW,2013-07-10 00:46:00,
2013-07-09 19:51:00,86.0,73.8,29.78,WSW,248,11.4,11.4,67,0.00,,,1.02,WUHU216HW,2013-07-10 00:51:00,
2013-07-09 19:56:00,85.1,73.5,29.78,SW,225,5.6,11.4,68,0.00,,,1.02,WUHU216HW,2013-07-10 00:56:00,
2013-07-09 20:01:00,83.9,73.4,29.78,SW,225,7.4,11.4,71,0.00,,,1.02,WUHU216HW,2013-07-10 01:01:00,
2013-07-09 20:06:00,83.2,73.6,29.78,WSW,248,5.8,8.7,73,0.00,,,1.02,WUHU216HW,2013-07-10 01:06:00,
2013-07-09 20:11:00,82.4,73.3,29.78,WSW,248,4.0,9.2,74,0.00,,,1.02,WUHU216HW,2013-07-10 01:11:00,
2013-07-09 20:16:00,81.7,72.6,29.78,WSW,248,7.8,9.2,74,0.00,,,1.02,WUHU216HW,2013-07-10 01:16:00,
2013-07-09 20:21:00,81.4,72.7,29.78,WSW,248,9.8,9.8,75,0.00,,,1.02,WUHU216HW,2013-07-10 01:21:00,
2013-07-09 20:26:00,81.0,72.4,29.78,SW,225,6.3,9.8,75,0.00,,,1.02,WUHU216HW,2013-07-10 01:26:00,
2013-07-09 20:31:00,81.0,72.7,29.79,WSW,248,6.3,11.2,76,0.00,,,1.02,WUHU216HW,2013-07-10 01:31:00,
2013-07-09 20:36:00,80.6,72.8,29.78,SW,225,8.9,11.2,77,0.00,,,1.02,WUHU216HW,2013-07-10 01:36:00,
2013-07-09 20:41:00,80.6,72.8,29.79,SSW,203,6.0,8.9,77,0.00,,,1.02,WUHU216HW,2013-07-10 01:41:00,
2013-07-09 20:46:00,80.5,72.6,29.79,SW,225,6.9,8.9,77,0.00,,,1.02,WUHU216HW,2013-07-10 01:46:00,
2013-07-09 20:51:00,80.3,72.8,29.78,SW,225,6.9,8.5,78,0.00,,,1.02,WUHU216HW,2013-07-10 01:51:00,
2013-07-09 20:56:00,79.9,72.5,29.78,SW,225,5.4,8.9,78,0.00,,,1.02,WUHU216HW,2013-07-10 01:56:00,
2013-07-09 21:01:00,79.6,72.1,29.79,WSW,248,5.4,8.9,78,0.00,,,1.02,WUHU216HW,2013-07-10 02:01:00,
2013-07-09 21:06:00,79.4,72.4,29.79,WSW,248,4.7,6.9,79,0.00,,,1.02,WUHU216HW,2013-07-10 02:06:00,
2013-07-09 21:11:00,79.2,72.2,29.79,SW,225,5.8,6.9,79,0.00,,,1.02,WUHU216HW,2013-07-10 02:11:00,
2013-07-09 21:16:00,79.0,72.4,29.79,SW,225,4.7,8.3,80,0.00,,,1.02,WUHU216HW,2013-07-10 02:16:00,
2013-07-09 21:21:00,78.8,72.5,29.80,WSW,248,5.1,8.3,81,0.00,,,1.02,WUHU216HW,2013-07-10 02:21:00,
2013-07-09 21:26:00,78.8,72.5,29.80,WSW,248,3.6,6.9,81,0.00,,,1.02,WUHU216HW,2013-07-10 02:26:00,
2013-07-09 21:31:00,79.0,72.7,29.80,SW,225,4.3,6.3,81,0.00,,,1.02,WUHU216HW,2013-07-10 02:31:00,
2013-07-09 21:36:00,78.8,72.5,29.80,WSW,248,4.9,6.5,81,0.00,,,1.02,WUHU216HW,2013-07-10 02:36:00,
2013-07-09 21:41:00,78.5,72.2,29.80,WSW,248,3.6,6.5,81,0.00,,,1.02,WUHU216HW,2013-07-10 02:41:00,
2013-07-09 21:46:00,78.3,72.0,29.80,SW,225,4.9,6.3,81,0.00,,,1.02,WUHU216HW,2013-07-10 02:46:00,
2013-07-09 21:51:00,78.1,72.2,29.80,WSW,248,5.4,6.9,82,0.00,,,1.02,WUHU216HW,2013-07-10 02:51:00,
2013-07-09 21:56:00,78.1,72.2,29.80,SW,225,4.7,6.9,82,0.00,,,1.02,WUHU216HW,2013-07-10 02:56:00,
2013-07-09 22:01:00,78.1,72.2,29.80,WSW,248,6.3,6.9,82,0.00,,,1.02,WUHU216HW,2013-07-10 03:01:00,
2013-07-09 22:06:00,78.3,72.7,29.80,SW,225,4.7,6.3,83,0.00,,,1.02,WUHU216HW,2013-07-10 03:06:00,
2013-07-09 22:11:00,78.3,72.7,29.81,WSW,248,4.3,6.3,83,0.00,,,1.02,WUHU216HW,2013-07-10 03:11:00,
2013-07-09 22:16:00,78.1,72.5,29.80,SW,225,4.7,6.0,83,0.00,,,1.02,WUHU216HW,2013-07-10 03:16:00,
2013-07-09 22:21:00,77.8,72.2,29.81,WSW,248,5.1,6.0,83,0.00,,,1.02,WUHU216HW,2013-07-10 03:21:00,
2013-07-09 22:26:00,77.6,72.0,29.80,WSW,248,3.4,5.4,83,0.00,,,1.02,WUHU216HW,2013-07-10 03:26:00,
2013-07-09 22:31:00,77.4,71.8,29.81,SW,225,3.6,5.4,83,0.00,,,1.02,WUHU216HW,2013-07-10 03:31:00,
2013-07-09 22:36:00,77.2,71.6,29.81,WSW,248,2.9,4.7,83,0.00,,,1.02,WUHU216HW,2013-07-10 03:36:00,
2013-07-09 22:41:00,77.0,71.8,29.81,WSW,248,3.6,4.9,84,0.00,,,1.02,WUHU216HW,2013-07-10 03:41:00,
2013-07-09 22:46:00,76.9,72.0,29.81,SW,225,4.5,5.1,85,0.00,,,1.02,WUHU216HW,2013-07-10 03:46:00,
2013-07-09 22:51:00,76.9,72.0,29.81,SW,225,4.3,5.6,85,0.00,,,1.02,WUHU216HW,2013-07-10 03:51:00,
2013-07-09 22:56:00,76.7,71.8,29.81,WSW,248,3.4,5.8,85,0.00,,,1.02,WUHU216HW,2013-07-10 03:56:00,
2013-07-09 23:01:00,76.7,71.8,29.81,WSW,248,5.1,6.3,85,0.00,,,1.02,WUHU216HW,2013-07-10 04:01:00,
2013-07-09 23:06:00,76.5,71.6,29.81,WSW,248,4.7,6.3,85,0.00,,,1.02,WUHU216HW,2013-07-10 04:06:00,
2013-07-09 23:11:00,76.3,71.5,29.81,SW,225,6.5,6.5,85,0.00,,,1.02,WUHU216HW,2013-07-10 04:11:00,
2013-07-09 23:16:00,76.0,71.2,29.81,WSW,248,5.4,6.5,85,0.00,,,1.02,WUHU216HW,2013-07-10 04:16:00,
2013-07-09 23:21:00,76.0,71.5,29.81,WSW,248,4.7,6.7,86,0.00,,,1.02,WUHU216HW,2013-07-10 04:21:00,
2013-07-09 23:26:00,76.0,71.5,29.81,WSW,248,6.9,6.9,86,0.00,,,1.02,WUHU216HW,2013-07-10 04:26:00,
2013-07-09 23:31:00,76.0,71.8,29.81,SW,225,6.0,6.9,87,0.00,,,1.02,WUHU216HW,2013-07-10 04:31:00,
2013-07-09 23:36:00,75.8,71.6,29.82,WSW,248,5.8,7.6,87,0.00,,,1.02,WUHU216HW,2013-07-10 04:36:00,
2013-07-09 23:41:00,75.8,71.6,29.81,WSW,248,5.8,7.6,87,0.00,,,1.02,WUHU216HW,2013-07-10 04:41:00,
2013-07-09 23:46:00,76.0,71.8,29.82,WSW,248,5.1,6.9,87,0.00,,,1.02,WUHU216HW,2013-07-10 04:46:00,
2013-07-09 23:51:00,76.1,72.0,29.81,WNW,293,4.5,7.6,87,0.00,,,1.02,WUHU216HW,2013-07-10 04:51:00,
2013-07-09 23:56:00,76.3,72.2,29.81,WSW,248,4.3,7.6,87,0.00,,,1.02,WUHU216HW,2013-07-10 04:56:00,